• Join FlightAware (Why Join?)
  • Login
  • US Flag 
06:11AM EDT


 

Airport Tracker/Info


-or-


 

Live Flight TrackerFlight Track Log ✈ AWI3704 ✈ 12-May-2013 ✈ KPHL - KALB

Flight Track Log - Related Links

Times and Time Zones

All times are in EDT time to prevent confusion due to time zone crossing. See the AWI3704 flight status page for this flight to view local times or setup timezone preferences in your user account.

Time Position Orientation Groundspeed Altitude Reporting Facility
EDT Latitude Longitude Course Direction KTS MPH feet Rate Location/Type
09:58AM 39.8667 -75.2667 37° Northeast 154 177 1,000  Level Philadelphia TRACON
09:58AM 39.8500 -75.3000 237° Southwest 176 203 2,000 2,700 Climbing Philadelphia TRACON
09:59AM 39.7833 -75.3333 201° Southwest 222 255 5,400 2,700 Climbing Philadelphia TRACON
10:01AM 39.8039 -74.8026 105° East  Level FlightAware Approximate
10:01AM 39.7597 -75.1889 102° East 302 348 9,900  Level New York Center
10:02AM 39.7873 -74.6961 37° Northeast  Level FlightAware Approximate
10:02AM 39.7692 -75.0489 85° East 333 383 11,300  Level New York Center
10:03AM 39.8558 -74.6276 37° Northeast  Level FlightAware Approximate
10:03AM 39.7783 -74.9092 85° East 376 433 12,100  Level New York Center
10:04AM 39.7889 -74.7828 84° East 382 440 12,200 1,020 Climbing New York Center
10:05AM 39.8431 -74.6642 59° Northeast 372 428 14,200 1,860 Climbing New York Center
10:06AM 39.9356 -74.5772 36° Northeast 378 435 16,000 1,680 Climbing New York Center
10:07AM 40.0386 -74.4772 37° Northeast 391 450 17,600 1,380 Climbing New York Center
10:08AM 40.1181 -74.4025 36° Northeast 427 491 18,900 1,260 Climbing New York Center
10:09AM 40.2258 -74.2914 38° Northeast 437 503 20,200 1,080 Climbing New York Center
10:10AM 40.3308 -74.1878 37° Northeast 455 524 21,100 900 Climbing New York Center
10:11AM 40.4361 -74.0786 38° Northeast 467 537 22,000 720 Climbing New York Center
10:12AM 40.5572 -73.9942 28° Northeast 472 543 22,600 600 Climbing New York Center
10:14AM 40.8267 -73.8253 25° Northeast 486 559 24,000 420 Climbing Boston Center
10:15AM 40.9322 -73.7094 40° Northeast 495 570 24,000 -240 Level Boston Center
10:16AM 41.0519 -73.6428 23° Northeast 480 552 23,600 -660 Descending Boston Center
10:17AM 41.1692 -73.5789 22° Northeast 463 533 22,700 -1,080 Descending Boston Center
10:18AM 41.2822 -73.5200 21° North 453 521 21,500 -1,380 Descending Boston Center
10:19AM 41.3933 -73.4583 23° Northeast 443 510 20,000 -1,260 Descending Boston Center
10:20AM 41.5044 -73.3964 23° Northeast 408 470 19,000 -600 Descending Boston Center
10:21AM 41.5986 -73.3422 23° Northeast 394 453 18,900 -1,020 Descending Boston Center
10:22AM 41.7089 -73.3550 355° North 371 427 17,000 -1,800 Descending Boston Center
10:23AM 41.7942 -73.3925 342° North 357 411 15,300 -1,800 Descending Boston Center
10:24AM 41.8939 -73.4358 342° North 344 396 13,400 -1,920 Descending Boston Center
10:25AM 41.9789 -73.4733 342° North 336 387 11,500 -1,680 Descending Boston Center
10:26AM 42.0100 -73.4850 344° North 319 367 11,100 -720 Descending Boston Center
10:26AM 42.0350 -73.4967 341° North 312 359 11,000 -180 Descending Boston Center
10:26AM 42.0597 -73.5083 341° North 313 360 11,000  Level Boston Center
10:27AM 42.1158 -73.5233 349° North 311 358 11,000  Level Boston Center
10:27AM 42.1450 -73.5236 360° North 308 354 11,000  Level Boston Center
10:28AM 42.2161 -73.5108 North 334 384 11,000  Level Boston Center
10:28AM 42.2369 -73.5114 359° North 308 354 11,000 -780 Level Boston Center
10:29AM 42.2889 -73.5178 355° North 313 360 10,300 -1,320 Descending Boston Center
10:30AM 42.3783 -73.5361 351° North 296 341 8,900 -1,560 Descending Boston Center
10:31AM 42.4533 -73.5600 347° North 283 326 7,200 -1,740 Descending Boston Center
10:32AM 42.5281 -73.5783 350° North 273 314 5,500 -1,740 Descending Boston Center
10:33AM 42.5986 -73.5994 348° North 256 295 3,700 -1,260 Descending Boston Center
10:34AM 42.6611 -73.6231 344° North 231 266 3,000 -600 Descending Boston Center
10:35AM 42.7150 -73.6522 338° Northwest 189 217 2,600 -420 Descending Boston Center